sensor_id;sensor_type;location;lat;lon;timestamp;P1;durP1;ratioP1;P2;durP2;ratioP2
12385;SDS011;6257;57.634;18.310;2024-01-30T00:00:09;7.70;;;4.07;;
12385;SDS011;6257;57.634;18.310;2024-01-30T00:02:37;9.83;;;4.00;;
12385;SDS011;6257;57.634;18.310;2024-01-30T00:05:05;11.00;;;4.53;;
12385;SDS011;6257;57.634;18.310;2024-01-30T00:07:33;8.83;;;3.87;;
12385;SDS011;6257;57.634;18.310;2024-01-30T00:10:01;8.10;;;4.33;;
12385;SDS011;6257;57.634;18.310;2024-01-30T00:12:28;8.53;;;4.47;;
12385;SDS011;6257;57.634;18.310;2024-01-30T00:14:55;9.27;;;4.00;;
12385;SDS011;6257;57.634;18.310;2024-01-30T00:17:22;9.63;;;4.07;;
12385;SDS011;6257;57.634;18.310;2024-01-30T00:19:50;6.67;;;3.60;;
12385;SDS011;6257;57.634;18.310;2024-01-30T00:22:18;10.17;;;4.00;;
12385;SDS011;6257;57.634;18.310;2024-01-30T00:24:45;45.53;;;6.87;;
12385;SDS011;6257;57.634;18.310;2024-01-30T00:27:12;37.03;;;6.80;;
12385;SDS011;6257;57.634;18.310;2024-01-30T00:29:39;20.53;;;5.23;;
12385;SDS011;6257;57.634;18.310;2024-01-30T00:32:06;30.17;;;6.00;;
12385;SDS011;6257;57.634;18.310;2024-01-30T00:34:34;14.17;;;4.67;;
12385;SDS011;6257;57.634;18.310;2024-01-30T00:37:01;11.27;;;4.40;;
12385;SDS011;6257;57.634;18.310;2024-01-30T00:39:29;8.60;;;3.87;;
12385;SDS011;6257;57.634;18.310;2024-01-30T00:41:56;13.93;;;4.80;;
12385;SDS011;6257;57.634;18.310;2024-01-30T00:44:23;6.77;;;4.00;;
12385;SDS011;6257;57.634;18.310;2024-01-30T00:46:51;10.53;;;4.10;;
12385;SDS011;6257;57.634;18.310;2024-01-30T00:49:18;8.07;;;4.40;;
12385;SDS011;6257;57.634;18.310;2024-01-30T00:51:45;9.57;;;4.90;;
12385;SDS011;6257;57.634;18.310;2024-01-30T00:54:12;8.87;;;4.40;;
12385;SDS011;6257;57.634;18.310;2024-01-30T00:56:40;10.10;;;4.47;;
12385;SDS011;6257;57.634;18.310;2024-01-30T00:59:08;8.50;;;4.20;;
12385;SDS011;6257;57.634;18.310;2024-01-30T01:01:35;11.30;;;4.23;;
12385;SDS011;6257;57.634;18.310;2024-01-30T01:04:02;13.63;;;4.50;;
12385;SDS011;6257;57.634;18.310;2024-01-30T01:06:29;10.07;;;4.57;;
12385;SDS011;6257;57.634;18.310;2024-01-30T01:08:56;7.80;;;4.10;;
12385;SDS011;6257;57.634;18.310;2024-01-30T01:11:23;10.77;;;4.60;;
12385;SDS011;6257;57.634;18.310;2024-01-30T01:13:51;8.83;;;4.33;;
12385;SDS011;6257;57.634;18.310;2024-01-30T01:16:18;24.73;;;5.67;;
12385;SDS011;6257;57.634;18.310;2024-01-30T01:18:46;29.93;;;5.47;;
12385;SDS011;6257;57.634;18.310;2024-01-30T01:21:13;14.83;;;4.93;;
12385;SDS011;6257;57.634;18.310;2024-01-30T01:23:40;11.33;;;3.90;;
12385;SDS011;6257;57.634;18.310;2024-01-30T01:26:07;10.50;;;4.60;;
12385;SDS011;6257;57.634;18.310;2024-01-30T01:28:34;10.50;;;4.23;;
12385;SDS011;6257;57.634;18.310;2024-01-30T01:31:03;9.47;;;4.67;;
12385;SDS011;6257;57.634;18.310;2024-01-30T01:33:31;11.20;;;4.40;;
12385;SDS011;6257;57.634;18.310;2024-01-30T01:35:58;8.63;;;4.70;;
12385;SDS011;6257;57.634;18.310;2024-01-30T01:38:27;8.03;;;4.40;;
12385;SDS011;6257;57.634;18.310;2024-01-30T01:40:54;8.10;;;4.60;;
12385;SDS011;6257;57.634;18.310;2024-01-30T01:43:21;10.63;;;4.33;;
12385;SDS011;6257;57.634;18.310;2024-01-30T01:45:48;8.63;;;4.40;;
12385;SDS011;6257;57.634;18.310;2024-01-30T01:48:17;7.60;;;4.40;;
12385;SDS011;6257;57.634;18.310;2024-01-30T01:50:44;8.13;;;4.30;;
12385;SDS011;6257;57.634;18.310;2024-01-30T01:53:11;7.63;;;4.60;;
12385;SDS011;6257;57.634;18.310;2024-01-30T01:55:39;7.87;;;4.27;;
12385;SDS011;6257;57.634;18.310;2024-01-30T01:58:06;9.20;;;4.70;;
12385;SDS011;6257;57.634;18.310;2024-01-30T02:00:35;11.50;;;5.07;;
12385;SDS011;6257;57.634;18.310;2024-01-30T02:03:05;9.53;;;4.77;;
12385;SDS011;6257;57.634;18.310;2024-01-30T02:05:34;8.13;;;4.57;;
12385;SDS011;6257;57.634;18.310;2024-01-30T02:08:02;8.23;;;4.27;;
12385;SDS011;6257;57.634;18.310;2024-01-30T02:10:30;8.17;;;4.77;;
12385;SDS011;6257;57.634;18.310;2024-01-30T02:12:57;8.47;;;5.00;;
12385;SDS011;6257;57.634;18.310;2024-01-30T02:15:24;10.53;;;4.73;;
12385;SDS011;6257;57.634;18.310;2024-01-30T02:17:51;9.07;;;5.30;;
12385;SDS011;6257;57.634;18.310;2024-01-30T02:20:18;7.70;;;5.13;;
12385;SDS011;6257;57.634;18.310;2024-01-30T02:22:47;12.63;;;5.20;;
12385;SDS011;6257;57.634;18.310;2024-01-30T02:25:15;10.17;;;4.73;;
12385;SDS011;6257;57.634;18.310;2024-01-30T02:27:42;11.20;;;5.20;;
12385;SDS011;6257;57.634;18.310;2024-01-30T02:30:09;6.73;;;4.80;;
12385;SDS011;6257;57.634;18.310;2024-01-30T02:32:37;8.00;;;5.03;;
12385;SDS011;6257;57.634;18.310;2024-01-30T02:35:05;7.63;;;4.70;;
12385;SDS011;6257;57.634;18.310;2024-01-30T02:37:32;7.77;;;4.73;;
12385;SDS011;6257;57.634;18.310;2024-01-30T02:40:00;9.00;;;5.63;;
12385;SDS011;6257;57.634;18.310;2024-01-30T02:42:27;9.20;;;4.80;;
12385;SDS011;6257;57.634;18.310;2024-01-30T02:44:54;14.23;;;5.70;;
12385;SDS011;6257;57.634;18.310;2024-01-30T02:47:21;10.10;;;5.43;;
12385;SDS011;6257;57.634;18.310;2024-01-30T02:49:48;8.53;;;4.83;;
12385;SDS011;6257;57.634;18.310;2024-01-30T02:52:15;11.47;;;4.80;;
12385;SDS011;6257;57.634;18.310;2024-01-30T02:54:42;8.20;;;4.80;;
12385;SDS011;6257;57.634;18.310;2024-01-30T02:57:11;6.77;;;4.40;;
12385;SDS011;6257;57.634;18.310;2024-01-30T02:59:38;9.10;;;5.17;;
12385;SDS011;6257;57.634;18.310;2024-01-30T03:02:05;10.73;;;5.43;;
12385;SDS011;6257;57.634;18.310;2024-01-30T03:04:32;11.33;;;5.30;;
12385;SDS011;6257;57.634;18.310;2024-01-30T03:06:59;8.63;;;5.37;;
12385;SDS011;6257;57.634;18.310;2024-01-30T03:09:26;11.97;;;5.27;;
12385;SDS011;6257;57.634;18.310;2024-01-30T03:11:53;11.40;;;5.37;;
12385;SDS011;6257;57.634;18.310;2024-01-30T03:14:22;9.17;;;5.47;;
12385;SDS011;6257;57.634;18.310;2024-01-30T03:16:49;10.77;;;5.33;;
12385;SDS011;6257;57.634;18.310;2024-01-30T03:19:16;10.70;;;5.63;;
12385;SDS011;6257;57.634;18.310;2024-01-30T03:21:43;9.47;;;5.40;;
12385;SDS011;6257;57.634;18.310;2024-01-30T03:24:10;10.43;;;5.00;;
12385;SDS011;6257;57.634;18.310;2024-01-30T03:26:37;7.17;;;4.77;;
12385;SDS011;6257;57.634;18.310;2024-01-30T03:29:04;10.43;;;5.20;;
12385;SDS011;6257;57.634;18.310;2024-01-30T03:31:33;8.83;;;5.13;;
12385;SDS011;6257;57.634;18.310;2024-01-30T03:34:00;10.00;;;5.17;;
12385;SDS011;6257;57.634;18.310;2024-01-30T03:36:28;10.90;;;4.83;;
12385;SDS011;6257;57.634;18.310;2024-01-30T03:38:58;8.73;;;4.97;;
12385;SDS011;6257;57.634;18.310;2024-01-30T03:41:25;8.63;;;5.13;;
12385;SDS011;6257;57.634;18.310;2024-01-30T03:43:52;8.10;;;4.53;;
12385;SDS011;6257;57.634;18.310;2024-01-30T03:46:19;12.53;;;5.23;;
12385;SDS011;6257;57.634;18.310;2024-01-30T03:48:47;8.33;;;4.53;;
12385;SDS011;6257;57.634;18.310;2024-01-30T03:51:14;11.63;;;5.00;;
12385;SDS011;6257;57.634;18.310;2024-01-30T03:53:41;9.87;;;4.87;;
12385;SDS011;6257;57.634;18.310;2024-01-30T03:56:10;9.13;;;5.33;;
12385;SDS011;6257;57.634;18.310;2024-01-30T03:58:38;9.60;;;5.13;;
12385;SDS011;6257;57.634;18.310;2024-01-30T04:01:05;9.03;;;5.23;;
12385;SDS011;6257;57.634;18.310;2024-01-30T04:03:32;10.83;;;5.57;;
12385;SDS011;6257;57.634;18.310;2024-01-30T04:06:00;8.50;;;5.40;;
12385;SDS011;6257;57.634;18.310;2024-01-30T04:08:27;8.97;;;4.67;;
12385;SDS011;6257;57.634;18.310;2024-01-30T04:10:55;13.17;;;5.63;;
12385;SDS011;6257;57.634;18.310;2024-01-30T04:13:22;13.33;;;6.13;;
12385;SDS011;6257;57.634;18.310;2024-01-30T04:15:49;8.63;;;5.57;;
12385;SDS011;6257;57.634;18.310;2024-01-30T04:18:16;9.40;;;5.37;;
12385;SDS011;6257;57.634;18.310;2024-01-30T04:20:43;10.13;;;5.20;;
12385;SDS011;6257;57.634;18.310;2024-01-30T04:23:13;9.07;;;5.00;;
12385;SDS011;6257;57.634;18.310;2024-01-30T04:25:40;10.00;;;5.33;;
12385;SDS011;6257;57.634;18.310;2024-01-30T04:28:07;10.13;;;5.90;;
12385;SDS011;6257;57.634;18.310;2024-01-30T04:30:34;12.20;;;6.20;;
12385;SDS011;6257;57.634;18.310;2024-01-30T04:33:01;9.03;;;5.67;;
12385;SDS011;6257;57.634;18.310;2024-01-30T04:35:28;11.23;;;5.73;;
12385;SDS011;6257;57.634;18.310;2024-01-30T04:37:55;10.73;;;6.23;;
12385;SDS011;6257;57.634;18.310;2024-01-30T04:40:24;10.17;;;5.67;;
12385;SDS011;6257;57.634;18.310;2024-01-30T04:42:51;12.77;;;5.77;;
12385;SDS011;6257;57.634;18.310;2024-01-30T04:45:19;10.83;;;5.83;;
12385;SDS011;6257;57.634;18.310;2024-01-30T04:47:46;13.70;;;6.20;;
12385;SDS011;6257;57.634;18.310;2024-01-30T04:50:14;14.47;;;5.83;;
12385;SDS011;6257;57.634;18.310;2024-01-30T04:52:41;15.57;;;6.50;;
12385;SDS011;6257;57.634;18.310;2024-01-30T04:55:09;15.83;;;6.40;;
12385;SDS011;6257;57.634;18.310;2024-01-30T04:57:39;12.90;;;6.00;;
12385;SDS011;6257;57.634;18.310;2024-01-30T05:00:07;9.43;;;5.73;;
12385;SDS011;6257;57.634;18.310;2024-01-30T05:02:35;9.47;;;6.00;;
12385;SDS011;6257;57.634;18.310;2024-01-30T05:05:04;15.33;;;6.20;;
12385;SDS011;6257;57.634;18.310;2024-01-30T05:07:32;11.40;;;6.10;;
12385;SDS011;6257;57.634;18.310;2024-01-30T05:09:59;11.97;;;5.90;;
12385;SDS011;6257;57.634;18.310;2024-01-30T05:12:27;12.20;;;5.20;;
12385;SDS011;6257;57.634;18.310;2024-01-30T05:14:56;9.17;;;5.77;;
12385;SDS011;6257;57.634;18.310;2024-01-30T05:17:23;13.00;;;5.40;;
12385;SDS011;6257;57.634;18.310;2024-01-30T05:19:50;12.90;;;5.10;;
12385;SDS011;6257;57.634;18.310;2024-01-30T05:22:18;10.37;;;5.67;;
12385;SDS011;6257;57.634;18.310;2024-01-30T05:24:45;10.43;;;5.73;;
12385;SDS011;6257;57.634;18.310;2024-01-30T05:27:12;17.20;;;6.33;;
12385;SDS011;6257;57.634;18.310;2024-01-30T05:29:39;10.53;;;5.60;;
12385;SDS011;6257;57.634;18.310;2024-01-30T05:32:08;10.47;;;5.83;;
12385;SDS011;6257;57.634;18.310;2024-01-30T05:34:35;8.97;;;5.50;;
12385;SDS011;6257;57.634;18.310;2024-01-30T05:37:03;16.23;;;5.77;;
12385;SDS011;6257;57.634;18.310;2024-01-30T05:39:30;14.23;;;6.13;;
12385;SDS011;6257;57.634;18.310;2024-01-30T05:41:58;13.50;;;6.00;;
12385;SDS011;6257;57.634;18.310;2024-01-30T05:44:25;20.67;;;6.20;;
12385;SDS011;6257;57.634;18.310;2024-01-30T05:46:52;11.10;;;6.13;;
12385;SDS011;6257;57.634;18.310;2024-01-30T05:49:21;18.13;;;6.87;;
12385;SDS011;6257;57.634;18.310;2024-01-30T05:51:48;20.30;;;6.33;;
12385;SDS011;6257;57.634;18.310;2024-01-30T05:54:15;14.13;;;6.23;;
12385;SDS011;6257;57.634;18.310;2024-01-30T05:56:42;14.13;;;7.17;;
12385;SDS011;6257;57.634;18.310;2024-01-30T05:59:09;18.57;;;6.80;;
12385;SDS011;6257;57.634;18.310;2024-01-30T06:01:36;18.00;;;6.57;;
12385;SDS011;6257;57.634;18.310;2024-01-30T06:04:03;18.10;;;6.37;;
12385;SDS011;6257;57.634;18.310;2024-01-30T06:06:32;13.77;;;6.43;;
12385;SDS011;6257;57.634;18.310;2024-01-30T06:08:59;15.60;;;7.77;;
12385;SDS011;6257;57.634;18.310;2024-01-30T06:11:26;10.20;;;7.27;;
12385;SDS011;6257;57.634;18.310;2024-01-30T06:13:57;19.73;;;7.87;;
12385;SDS011;6257;57.634;18.310;2024-01-30T06:16:24;15.57;;;7.10;;
12385;SDS011;6257;57.634;18.310;2024-01-30T06:18:54;15.47;;;7.43;;
12385;SDS011;6257;57.634;18.310;2024-01-30T06:21:21;17.10;;;7.60;;
12385;SDS011;6257;57.634;18.310;2024-01-30T06:23:51;13.07;;;7.53;;
12385;SDS011;6257;57.634;18.310;2024-01-30T06:26:18;16.80;;;7.30;;
12385;SDS011;6257;57.634;18.310;2024-01-30T06:28:46;15.27;;;8.00;;
12385;SDS011;6257;57.634;18.310;2024-01-30T06:31:13;10.37;;;7.17;;
12385;SDS011;6257;57.634;18.310;2024-01-30T06:33:40;12.70;;;7.00;;
12385;SDS011;6257;57.634;18.310;2024-01-30T06:36:08;20.33;;;7.47;;
12385;SDS011;6257;57.634;18.310;2024-01-30T06:38:35;18.43;;;7.07;;
12385;SDS011;6257;57.634;18.310;2024-01-30T06:41:03;18.27;;;6.83;;
12385;SDS011;6257;57.634;18.310;2024-01-30T06:43:30;22.73;;;7.40;;
12385;SDS011;6257;57.634;18.310;2024-01-30T06:45:57;16.13;;;6.73;;
12385;SDS011;6257;57.634;18.310;2024-01-30T06:48:25;17.57;;;6.80;;
12385;SDS011;6257;57.634;18.310;2024-01-30T06:50:52;17.03;;;7.10;;
12385;SDS011;6257;57.634;18.310;2024-01-30T06:53:19;19.50;;;7.20;;
12385;SDS011;6257;57.634;18.310;2024-01-30T06:55:46;14.30;;;6.80;;
12385;SDS011;6257;57.634;18.310;2024-01-30T06:58:15;20.73;;;8.20;;
12385;SDS011;6257;57.634;18.310;2024-01-30T07:00:42;13.13;;;6.97;;
12385;SDS011;6257;57.634;18.310;2024-01-30T07:03:09;16.97;;;7.00;;
12385;SDS011;6257;57.634;18.310;2024-01-30T07:05:36;13.17;;;6.43;;
12385;SDS011;6257;57.634;18.310;2024-01-30T07:08:03;14.07;;;6.90;;
12385;SDS011;6257;57.634;18.310;2024-01-30T07:10:30;14.07;;;6.80;;
12385;SDS011;6257;57.634;18.310;2024-01-30T07:12:58;12.00;;;6.37;;
12385;SDS011;6257;57.634;18.310;2024-01-30T07:15:27;15.63;;;6.97;;
12385;SDS011;6257;57.634;18.310;2024-01-30T07:17:55;17.43;;;6.40;;
12385;SDS011;6257;57.634;18.310;2024-01-30T07:20:22;18.80;;;6.93;;
12385;SDS011;6257;57.634;18.310;2024-01-30T07:22:49;16.73;;;7.33;;
12385;SDS011;6257;57.634;18.310;2024-01-30T07:25:16;21.47;;;7.53;;
12385;SDS011;6257;57.634;18.310;2024-01-30T07:27:43;14.20;;;7.17;;
12385;SDS011;6257;57.634;18.310;2024-01-30T07:30:10;9.97;;;7.03;;
12385;SDS011;6257;57.634;18.310;2024-01-30T07:32:39;13.07;;;6.33;;
12385;SDS011;6257;57.634;18.310;2024-01-30T07:35:06;11.27;;;6.57;;
12385;SDS011;6257;57.634;18.310;2024-01-30T07:37:33;16.30;;;6.77;;
12385;SDS011;6257;57.634;18.310;2024-01-30T07:40:01;13.17;;;7.07;;
12385;SDS011;6257;57.634;18.310;2024-01-30T07:42:28;14.20;;;7.00;;
12385;SDS011;6257;57.634;18.310;2024-01-30T07:44:55;13.43;;;6.57;;
12385;SDS011;6257;57.634;18.310;2024-01-30T07:47:22;13.23;;;6.53;;
12385;SDS011;6257;57.634;18.310;2024-01-30T07:49:51;14.17;;;6.40;;
12385;SDS011;6257;57.634;18.310;2024-01-30T07:52:19;11.10;;;6.27;;
12385;SDS011;6257;57.634;18.310;2024-01-30T07:57:45;10.60;;;6.40;;
12385;SDS011;6257;57.634;18.310;2024-01-30T08:00:13;14.77;;;6.07;;
12385;SDS011;6257;57.634;18.310;2024-01-30T08:02:41;21.37;;;7.10;;
12385;SDS011;6257;57.634;18.310;2024-01-30T08:05:10;12.67;;;6.07;;
12385;SDS011;6257;57.634;18.310;2024-01-30T08:07:37;10.37;;;6.60;;
12385;SDS011;6257;57.634;18.310;2024-01-30T08:10:04;12.57;;;6.90;;
12385;SDS011;6257;57.634;18.310;2024-01-30T08:12:32;13.23;;;6.13;;
12385;SDS011;6257;57.634;18.310;2024-01-30T08:14:59;11.80;;;5.77;;
12385;SDS011;6257;57.634;18.310;2024-01-30T08:17:26;12.10;;;6.27;;
12385;SDS011;6257;57.634;18.310;2024-01-30T08:19:53;12.63;;;5.77;;
12385;SDS011;6257;57.634;18.310;2024-01-30T08:22:21;11.67;;;6.10;;
12385;SDS011;6257;57.634;18.310;2024-01-30T08:24:48;12.07;;;5.63;;
12385;SDS011;6257;57.634;18.310;2024-01-30T08:27:15;9.50;;;5.60;;
12385;SDS011;6257;57.634;18.310;2024-01-30T08:29:42;11.77;;;5.97;;
12385;SDS011;6257;57.634;18.310;2024-01-30T08:32:09;12.77;;;5.73;;
12385;SDS011;6257;57.634;18.310;2024-01-30T08:34:36;12.97;;;6.17;;
12385;SDS011;6257;57.634;18.310;2024-01-30T08:37:03;13.37;;;5.80;;
12385;SDS011;6257;57.634;18.310;2024-01-30T08:39:32;13.00;;;5.63;;
12385;SDS011;6257;57.634;18.310;2024-01-30T08:41:59;9.90;;;5.60;;
12385;SDS011;6257;57.634;18.310;2024-01-30T08:44:26;18.30;;;6.60;;
12385;SDS011;6257;57.634;18.310;2024-01-30T08:46:53;14.30;;;5.67;;
12385;SDS011;6257;57.634;18.310;2024-01-30T08:49:21;12.60;;;5.97;;
12385;SDS011;6257;57.634;18.310;2024-01-30T08:51:48;9.97;;;5.20;;
12385;SDS011;6257;57.634;18.310;2024-01-30T08:54:15;9.17;;;5.30;;
12385;SDS011;6257;57.634;18.310;2024-01-30T08:56:44;11.27;;;5.30;;
12385;SDS011;6257;57.634;18.310;2024-01-30T08:59:11;17.53;;;5.90;;
12385;SDS011;6257;57.634;18.310;2024-01-30T09:01:38;11.70;;;5.43;;
12385;SDS011;6257;57.634;18.310;2024-01-30T09:04:05;13.43;;;5.10;;
12385;SDS011;6257;57.634;18.310;2024-01-30T09:06:32;11.73;;;5.47;;
12385;SDS011;6257;57.634;18.310;2024-01-30T09:08:59;11.03;;;5.60;;
12385;SDS011;6257;57.634;18.310;2024-01-30T09:11:26;13.00;;;5.27;;
12385;SDS011;6257;57.634;18.310;2024-01-30T09:13:58;11.83;;;5.43;;
12385;SDS011;6257;57.634;18.310;2024-01-30T09:16:29;12.97;;;5.57;;
12385;SDS011;6257;57.634;18.310;2024-01-30T09:18:56;9.83;;;5.07;;
12385;SDS011;6257;57.634;18.310;2024-01-30T09:21:23;14.00;;;5.40;;
12385;SDS011;6257;57.634;18.310;2024-01-30T09:23:51;14.47;;;5.23;;
12385;SDS011;6257;57.634;18.310;2024-01-30T09:26:20;14.47;;;4.63;;
12385;SDS011;6257;57.634;18.310;2024-01-30T09:28:47;10.10;;;5.00;;
12385;SDS011;6257;57.634;18.310;2024-01-30T09:31:15;14.93;;;5.90;;
12385;SDS011;6257;57.634;18.310;2024-01-30T09:33:42;10.63;;;5.27;;
12385;SDS011;6257;57.634;18.310;2024-01-30T09:36:12;10.07;;;5.23;;
12385;SDS011;6257;57.634;18.310;2024-01-30T09:38:43;11.03;;;5.13;;
12385;SDS011;6257;57.634;18.310;2024-01-30T09:41:10;10.77;;;5.40;;
12385;SDS011;6257;57.634;18.310;2024-01-30T09:43:39;8.80;;;5.53;;
12385;SDS011;6257;57.634;18.310;2024-01-30T09:46:07;10.93;;;5.53;;
12385;SDS011;6257;57.634;18.310;2024-01-30T09:48:40;11.43;;;5.40;;
12385;SDS011;6257;57.634;18.310;2024-01-30T09:51:08;9.40;;;4.83;;
12385;SDS011;6257;57.634;18.310;2024-01-30T09:53:35;11.53;;;5.53;;
12385;SDS011;6257;57.634;18.310;2024-01-30T09:56:04;10.97;;;5.07;;
12385;SDS011;6257;57.634;18.310;2024-01-30T09:58:32;10.53;;;5.60;;
12385;SDS011;6257;57.634;18.310;2024-01-30T10:00:59;10.87;;;5.30;;
12385;SDS011;6257;57.634;18.310;2024-01-30T10:03:27;13.03;;;5.67;;
12385;SDS011;6257;57.634;18.310;2024-01-30T10:05:56;10.80;;;5.60;;
12385;SDS011;6257;57.634;18.310;2024-01-30T10:08:23;12.33;;;5.40;;
12385;SDS011;6257;57.634;18.310;2024-01-30T10:10:50;11.83;;;5.70;;
12385;SDS011;6257;57.634;18.310;2024-01-30T10:13:17;10.50;;;5.40;;
12385;SDS011;6257;57.634;18.310;2024-01-30T10:15:44;9.07;;;5.73;;
12385;SDS011;6257;57.634;18.310;2024-01-30T10:18:11;14.73;;;5.23;;
12385;SDS011;6257;57.634;18.310;2024-01-30T10:20:38;9.00;;;5.10;;
12385;SDS011;6257;57.634;18.310;2024-01-30T10:23:06;11.17;;;5.50;;
12385;SDS011;6257;57.634;18.310;2024-01-30T10:25:34;10.77;;;5.87;;
12385;SDS011;6257;57.634;18.310;2024-01-30T10:28:02;10.30;;;4.87;;
12385;SDS011;6257;57.634;18.310;2024-01-30T10:30:29;10.80;;;5.47;;
12385;SDS011;6257;57.634;18.310;2024-01-30T10:32:57;9.47;;;5.57;;
12385;SDS011;6257;57.634;18.310;2024-01-30T10:35:24;10.63;;;4.60;;
12385;SDS011;6257;57.634;18.310;2024-01-30T10:37:51;10.70;;;4.80;;
12385;SDS011;6257;57.634;18.310;2024-01-30T10:40:21;11.67;;;5.00;;
12385;SDS011;6257;57.634;18.310;2024-01-30T10:42:53;14.17;;;5.43;;
12385;SDS011;6257;57.634;18.310;2024-01-30T10:45:22;8.77;;;4.43;;
12385;SDS011;6257;57.634;18.310;2024-01-30T10:47:49;8.83;;;4.93;;
12385;SDS011;6257;57.634;18.310;2024-01-30T10:50:17;10.43;;;5.10;;
12385;SDS011;6257;57.634;18.310;2024-01-30T10:52:44;13.40;;;5.50;;
12385;SDS011;6257;57.634;18.310;2024-01-30T10:55:11;8.00;;;5.00;;
12385;SDS011;6257;57.634;18.310;2024-01-30T10:57:41;11.57;;;5.33;;
12385;SDS011;6257;57.634;18.310;2024-01-30T11:00:09;8.47;;;4.90;;
12385;SDS011;6257;57.634;18.310;2024-01-30T11:02:38;25.93;;;6.37;;
12385;SDS011;6257;57.634;18.310;2024-01-30T11:05:07;23.63;;;5.97;;
12385;SDS011;6257;57.634;18.310;2024-01-30T11:07:34;22.90;;;5.57;;
12385;SDS011;6257;57.634;18.310;2024-01-30T11:10:02;24.07;;;6.57;;
12385;SDS011;6257;57.634;18.310;2024-01-30T11:12:31;24.60;;;6.10;;
12385;SDS011;6257;57.634;18.310;2024-01-30T11:15:04;19.33;;;6.00;;
12385;SDS011;6257;57.634;18.310;2024-01-30T11:17:40;18.23;;;6.57;;
12385;SDS011;6257;57.634;18.310;2024-01-30T11:20:11;27.07;;;5.97;;
12385;SDS011;6257;57.634;18.310;2024-01-30T11:22:41;14.33;;;5.47;;
12385;SDS011;6257;57.634;18.310;2024-01-30T11:25:11;11.13;;;5.13;;
12385;SDS011;6257;57.634;18.310;2024-01-30T11:27:39;21.50;;;6.30;;
12385;SDS011;6257;57.634;18.310;2024-01-30T11:30:09;21.27;;;6.27;;
12385;SDS011;6257;57.634;18.310;2024-01-30T11:32:37;16.53;;;5.57;;
12385;SDS011;6257;57.634;18.310;2024-01-30T11:35:04;14.27;;;5.50;;
12385;SDS011;6257;57.634;18.310;2024-01-30T11:37:36;15.73;;;5.63;;
12385;SDS011;6257;57.634;18.310;2024-01-30T11:40:04;17.00;;;5.23;;
12385;SDS011;6257;57.634;18.310;2024-01-30T11:42:32;16.03;;;5.70;;
12385;SDS011;6257;57.634;18.310;2024-01-30T11:45:00;19.43;;;6.10;;
12385;SDS011;6257;57.634;18.310;2024-01-30T11:47:30;15.20;;;5.70;;
12385;SDS011;6257;57.634;18.310;2024-01-30T11:49:57;14.83;;;5.00;;
12385;SDS011;6257;57.634;18.310;2024-01-30T11:52:24;17.37;;;6.77;;
12385;SDS011;6257;57.634;18.310;2024-01-30T11:54:51;15.03;;;5.77;;
12385;SDS011;6257;57.634;18.310;2024-01-30T11:57:18;16.90;;;6.13;;
12385;SDS011;6257;57.634;18.310;2024-01-30T11:59:45;13.10;;;5.20;;
12385;SDS011;6257;57.634;18.310;2024-01-30T12:02:15;13.23;;;5.43;;
12385;SDS011;6257;57.634;18.310;2024-01-30T12:04:44;11.53;;;5.57;;
12385;SDS011;6257;57.634;18.310;2024-01-30T12:07:11;13.60;;;5.83;;
12385;SDS011;6257;57.634;18.310;2024-01-30T12:09:41;49.00;;;8.90;;
12385;SDS011;6257;57.634;18.310;2024-01-30T12:12:08;28.80;;;7.37;;
12385;SDS011;6257;57.634;18.310;2024-01-30T12:14:37;28.47;;;6.90;;
12385;SDS011;6257;57.634;18.310;2024-01-30T12:17:05;37.07;;;7.17;;
12385;SDS011;6257;57.634;18.310;2024-01-30T12:19:34;21.00;;;6.40;;
12385;SDS011;6257;57.634;18.310;2024-01-30T12:22:03;13.77;;;5.67;;
12385;SDS011;6257;57.634;18.310;2024-01-30T12:24:30;8.63;;;5.30;;
12385;SDS011;6257;57.634;18.310;2024-01-30T12:26:57;10.90;;;5.27;;
12385;SDS011;6257;57.634;18.310;2024-01-30T12:29:25;10.47;;;5.13;;
12385;SDS011;6257;57.634;18.310;2024-01-30T12:31:52;19.23;;;6.10;;
12385;SDS011;6257;57.634;18.310;2024-01-30T12:34:20;18.47;;;5.97;;
12385;SDS011;6257;57.634;18.310;2024-01-30T12:36:47;14.20;;;5.53;;
12385;SDS011;6257;57.634;18.310;2024-01-30T12:39:16;18.93;;;6.47;;
12385;SDS011;6257;57.634;18.310;2024-01-30T12:41:43;19.97;;;6.53;;
12385;SDS011;6257;57.634;18.310;2024-01-30T12:44:10;11.00;;;5.63;;
12385;SDS011;6257;57.634;18.310;2024-01-30T12:46:39;16.17;;;5.60;;
12385;SDS011;6257;57.634;18.310;2024-01-30T12:49:06;10.90;;;5.47;;
12385;SDS011;6257;57.634;18.310;2024-01-30T12:51:33;13.30;;;6.27;;
12385;SDS011;6257;57.634;18.310;2024-01-30T12:54:04;16.93;;;6.10;;
12385;SDS011;6257;57.634;18.310;2024-01-30T12:56:33;15.83;;;6.57;;
12385;SDS011;6257;57.634;18.310;2024-01-30T12:59:00;17.30;;;6.57;;
12385;SDS011;6257;57.634;18.310;2024-01-30T13:01:27;18.93;;;7.20;;
12385;SDS011;6257;57.634;18.310;2024-01-30T13:03:54;11.50;;;6.60;;
12385;SDS011;6257;57.634;18.310;2024-01-30T13:06:23;14.13;;;6.77;;
12385;SDS011;6257;57.634;18.310;2024-01-30T13:08:50;13.60;;;7.13;;
12385;SDS011;6257;57.634;18.310;2024-01-30T13:11:17;14.13;;;7.10;;
12385;SDS011;6257;57.634;18.310;2024-01-30T13:13:46;16.87;;;7.53;;
12385;SDS011;6257;57.634;18.310;2024-01-30T13:16:13;12.27;;;6.77;;
12385;SDS011;6257;57.634;18.310;2024-01-30T13:18:40;11.17;;;6.30;;
12385;SDS011;6257;57.634;18.310;2024-01-30T13:21:07;10.63;;;6.70;;
12385;SDS011;6257;57.634;18.310;2024-01-30T13:23:34;11.23;;;6.83;;
12385;SDS011;6257;57.634;18.310;2024-01-30T13:26:01;14.37;;;6.17;;
12385;SDS011;6257;57.634;18.310;2024-01-30T13:28:28;12.30;;;6.20;;
12385;SDS011;6257;57.634;18.310;2024-01-30T13:30:56;13.10;;;6.33;;
12385;SDS011;6257;57.634;18.310;2024-01-30T13:33:23;10.80;;;5.90;;
12385;SDS011;6257;57.634;18.310;2024-01-30T13:35:50;15.53;;;6.43;;
12385;SDS011;6257;57.634;18.310;2024-01-30T13:38:17;11.40;;;6.03;;
12385;SDS011;6257;57.634;18.310;2024-01-30T13:40:44;15.33;;;6.20;;
12385;SDS011;6257;57.634;18.310;2024-01-30T13:43:11;17.07;;;6.30;;
12385;SDS011;6257;57.634;18.310;2024-01-30T13:45:38;11.03;;;5.90;;
12385;SDS011;6257;57.634;18.310;2024-01-30T13:48:08;15.57;;;6.13;;
12385;SDS011;6257;57.634;18.310;2024-01-30T13:50:36;14.37;;;5.97;;
12385;SDS011;6257;57.634;18.310;2024-01-30T13:53:09;11.97;;;6.33;;
12385;SDS011;6257;57.634;18.310;2024-01-30T13:55:36;9.77;;;5.90;;
12385;SDS011;6257;57.634;18.310;2024-01-30T13:58:05;13.63;;;5.80;;
12385;SDS011;6257;57.634;18.310;2024-01-30T14:00:32;21.53;;;6.67;;
12385;SDS011;6257;57.634;18.310;2024-01-30T14:03:00;12.10;;;6.23;;
12385;SDS011;6257;57.634;18.310;2024-01-30T14:05:28;17.93;;;6.30;;
12385;SDS011;6257;57.634;18.310;2024-01-30T14:07:55;16.23;;;6.40;;
12385;SDS011;6257;57.634;18.310;2024-01-30T14:10:24;10.90;;;5.77;;
12385;SDS011;6257;57.634;18.310;2024-01-30T14:12:52;12.23;;;6.43;;
12385;SDS011;6257;57.634;18.310;2024-01-30T14:15:19;14.03;;;5.83;;
12385;SDS011;6257;57.634;18.310;2024-01-30T14:17:47;12.03;;;6.10;;
12385;SDS011;6257;57.634;18.310;2024-01-30T14:20:15;12.97;;;5.80;;
12385;SDS011;6257;57.634;18.310;2024-01-30T14:22:44;16.83;;;6.87;;
12385;SDS011;6257;57.634;18.310;2024-01-30T14:25:11;16.53;;;6.43;;
12385;SDS011;6257;57.634;18.310;2024-01-30T14:27:38;11.20;;;5.73;;
12385;SDS011;6257;57.634;18.310;2024-01-30T14:30:05;15.43;;;6.50;;
12385;SDS011;6257;57.634;18.310;2024-01-30T14:32:36;16.97;;;7.57;;
12385;SDS011;6257;57.634;18.310;2024-01-30T14:35:05;11.30;;;6.73;;
12385;SDS011;6257;57.634;18.310;2024-01-30T14:37:34;16.13;;;6.93;;
12385;SDS011;6257;57.634;18.310;2024-01-30T14:40:02;17.37;;;6.30;;
12385;SDS011;6257;57.634;18.310;2024-01-30T14:42:32;20.80;;;7.27;;